Time;durP1;ratioP1;P1;durP2;ratioP2;P2;SDS_P1;SDS_P2;PMS_P1;PMS_P2;Temp;Humidity;BMP_temperature;BMP_pressure;BME280_temperature;BME280_humidity;BME280_pressure;Samples;Min_cycle;Max_cycle;Signal;HPM_P1;HPM_P2
2021/10/27 00:02:01;;;;;;;14.55;6.05;;;;;;;13.29;98.68;102088.66;4992156;28;20039;-46
2021/10/27 00:04:29;;;;;;;10.82;6.00;;;;;;;13.31;98.56;102094.69;4992197;28;20066;-47
2021/10/27 00:06:56;;;;;;;13.23;6.30;;;;;;;13.31;98.30;102091.97;4991838;28;20723;-48
2021/10/27 00:09:24;;;;;;;9.77;6.32;;;;;;;13.29;98.94;102097.69;4991884;28;20053;-46
2021/10/27 00:11:51;;;;;;;11.27;6.47;;;;;;;13.28;99.03;102095.22;4991999;28;20393;-45
2021/10/27 00:14:19;;;;;;;11.35;6.72;;;;;;;13.29;99.13;102094.13;4992070;28;20046;-46
2021/10/27 00:16:46;;;;;;;11.18;6.43;;;;;;;13.29;98.86;102094.13;4991531;28;20505;-49
2021/10/27 00:19:14;;;;;;;11.45;6.20;;;;;;;13.30;99.05;102103.97;4991759;28;20052;-48
2021/10/27 00:21:42;;;;;;;12.65;6.53;;;;;;;13.28;99.25;102101.50;4991006;28;20069;-52
2021/10/27 00:24:09;;;;;;;10.07;5.15;;;;;;;13.30;99.30;102109.44;4991841;28;20457;-49
2021/10/27 00:26:37;;;;;;;11.48;5.78;;;;;;;13.30;99.72;102114.94;4992222;28;20070;-49
2021/10/27 00:29:05;;;;;;;11.68;6.20;;;;;;;13.29;99.84;102102.34;4985566;28;20042;-48
2021/10/27 00:31:32;;;;;;;11.00;5.70;;;;;;;13.29;99.61;102105.06;4992664;28;20042;-47
2021/10/27 00:34:00;;;;;;;12.70;5.15;;;;;;;13.29;99.71;102105.88;4991954;28;20129;-47
2021/10/27 00:36:27;;;;;;;10.38;4.97;;;;;;;13.32;99.64;102099.06;4995945;28;20035;-47
2021/10/27 00:38:55;;;;;;;10.23;5.50;;;;;;;13.30;99.62;102110.31;4995114;28;20041;-47
2021/10/27 00:41:23;;;;;;;8.73;4.88;;;;;;;13.31;99.96;102109.22;4995457;28;20098;-47
2021/10/27 00:43:51;;;;;;;12.07;6.07;;;;;;;13.32;100.00;102108.09;4995431;28;20046;-46
2021/10/27 00:46:23;;;;;;;11.55;5.32;;;;;;;13.33;99.68;102103.50;4995326;28;20051;-46
2021/10/27 00:48:52;;;;;;;11.95;5.13;;;;;;;13.30;100.00;102104.81;4995610;28;20042;-47
2021/10/27 00:51:20;;;;;;;13.55;5.32;;;;;;;13.32;99.90;102107.28;4995735;28;20047;-47
2021/10/27 00:53:48;;;;;;;12.80;5.90;;;;;;;13.31;100.00;102105.66;4995504;28;20046;-48
2021/10/27 00:56:18;;;;;;;11.23;5.50;;;;;;;13.30;99.98;102098.50;4995479;28;20517;-46
2021/10/27 00:58:45;;;;;;;12.95;5.70;;;;;;;13.31;100.00;102106.47;4994986;28;20401;-47
2021/10/27 01:01:13;;;;;;;10.20;5.05;;;;;;;13.32;99.82;102099.06;5010168;28;20042;-49
2021/10/27 01:03:41;;;;;;;8.68;4.93;;;;;;;13.32;100.00;102101.81;4995470;28;20043;-47
2021/10/27 01:06:08;;;;;;;11.45;4.78;;;;;;;13.32;100.00;102090.88;4995058;28;20050;-46
2021/10/27 01:08:36;;;;;;;13.32;4.80;;;;;;;13.32;99.90;102094.41;4994887;28;20038;-48
2021/10/27 01:11:04;;;;;;;9.18;4.35;;;;;;;13.32;100.00;102090.88;4993535;28;20088;-48
2021/10/27 01:13:32;;;;;;;10.77;4.85;;;;;;;13.33;99.85;102093.34;4995166;28;20500;-48
2021/10/27 01:16:00;;;;;;;10.68;4.75;;;;;;;13.35;99.63;102091.19;4993287;28;20042;-47
2021/10/27 01:18:28;;;;;;;11.10;4.88;;;;;;;13.33;100.00;102100.75;4995298;28;20058;-48
2021/10/27 01:20:56;;;;;;;12.13;5.10;;;;;;;13.33;100.00;102096.09;4994709;28;20057;-45
2021/10/27 01:23:24;;;;;;;9.88;5.03;;;;;;;13.35;99.43;102090.38;4995415;28;20046;-48
2021/10/27 01:25:52;;;;;;;10.48;5.10;;;;;;;13.32;99.70;102091.69;4995086;28;20042;-47
2021/10/27 01:28:19;;;;;;;8.93;4.35;;;;;;;13.32;99.84;102079.91;4994723;28;20046;-47
2021/10/27 01:30:47;;;;;;;9.07;4.80;;;;;;;13.32;100.00;102079.91;4994303;28;20038;-48
2021/10/27 01:33:15;;;;;;;8.73;4.43;;;;;;;13.32;99.85;102083.47;4994613;28;20050;-45
2021/10/27 01:35:42;;;;;;;13.93;4.32;;;;;;;13.33;99.77;102087.06;4995071;28;20137;-47
2021/10/27 01:38:10;;;;;;;10.85;4.28;;;;;;;13.35;99.64;102076.69;4994315;28;20512;-48
2021/10/27 01:40:38;;;;;;;10.98;4.75;;;;;;;13.33;99.66;102081.59;4994836;28;20054;-47
2021/10/27 01:43:06;;;;;;;9.65;5.10;;;;;;;13.30;100.00;102074.72;4993865;28;20046;-47
2021/10/27 01:45:33;;;;;;;10.50;5.20;;;;;;;13.31;99.95;102081.00;4993551;28;20489;-47
2021/10/27 01:48:01;;;;;;;11.25;4.63;;;;;;;13.36;99.47;102072.84;4992483;28;20101;-47
2021/10/27 01:50:29;;;;;;;10.90;4.60;;;;;;;13.33;99.67;102073.38;4994628;28;20043;-44
2021/10/27 01:52:56;;;;;;;8.30;3.95;;;;;;;13.34;99.43;102066.81;4994502;28;20050;-47
2021/10/27 01:55:24;;;;;;;9.77;4.10;;;;;;;13.36;99.49;102070.13;4994727;28;20077;-48
2021/10/27 01:57:51;;;;;;;9.20;4.30;;;;;;;13.34;99.36;102061.34;4994126;28;20042;-49
2021/10/27 02:00:19;;;;;;;15.35;4.85;;;;;;;13.34;99.77;102064.06;4994002;28;20046;-47
2021/10/27 02:02:47;;;;;;;9.88;4.43;;;;;;;13.33;99.47;102068.72;4994266;28;20053;-47
2021/10/27 02:05:14;;;;;;;10.68;4.63;;;;;;;13.32;99.61;102058.84;4994491;28;20054;-48
2021/10/27 02:07:43;;;;;;;10.27;4.40;;;;;;;13.33;99.79;102065.16;4994334;28;20391;-47
2021/10/27 02:10:11;;;;;;;11.75;4.22;;;;;;;13.35;99.73;102063.81;4993999;28;20042;-46
2021/10/27 02:12:40;;;;;;;10.35;3.80;;;;;;;13.34;99.30;102055.84;4994131;28;20042;-46
2021/10/27 02:15:09;;;;;;;9.50;3.58;;;;;;;13.37;99.09;102056.19;4993273;28;20042;-44
2021/10/27 02:17:37;;;;;;;10.02;4.60;;;;;;;13.37;98.89;102049.84;4993996;28;20053;-47
2021/10/27 02:20:09;;;;;;;10.90;4.07;;;;;;;13.37;99.15;102055.34;4993488;28;20038;-47
2021/10/27 02:22:37;;;;;;;8.07;3.83;;;;;;;13.37;99.10;102058.06;4994267;28;20038;-47
2021/10/27 02:25:04;;;;;;;12.25;4.03;;;;;;;13.37;99.13;102055.34;4993810;28;20050;-47
2021/10/27 02:27:32;;;;;;;11.10;4.30;;;;;;;13.36;99.12;102056.44;4993502;28;20043;-48
2021/10/27 02:30:00;;;;;;;11.27;4.63;;;;;;;13.35;99.14;102063.00;4993389;28;20460;-48
2021/10/27 02:32:27;;;;;;;12.85;4.53;;;;;;;13.33;99.34;102065.16;4993827;28;20045;-48
2021/10/27 02:34:55;;;;;;;7.10;3.50;;;;;;;13.35;98.93;102066.56;4993710;28;20031;-47
2021/10/27 02:37:23;;;;;;;12.10;3.83;;;;;;;13.35;99.23;102066.56;4993758;28;20049;-47
2021/10/27 02:39:50;;;;;;;10.25;3.83;;;;;;;13.36;99.04;102064.66;4992438;28;20038;-48
2021/10/27 02:42:18;;;;;;;10.90;4.50;;;;;;;13.36;98.78;102064.66;4992877;28;20085;-47
2021/10/27 02:44:46;;;;;;;9.82;3.70;;;;;;;13.37;98.59;102061.66;4992722;28;20509;-47
2021/10/27 02:47:14;;;;;;;11.35;4.18;;;;;;;13.37;98.61;102060.81;4993526;28;20046;-47
2021/10/27 02:49:41;;;;;;;10.70;4.35;;;;;;;13.40;98.37;102065.78;4993130;28;20039;-46
2021/10/27 02:52:10;;;;;;;9.05;3.67;;;;;;;13.37;98.53;102067.13;4993683;28;20572;-44
2021/10/27 02:54:37;;;;;;;12.57;4.47;;;;;;;13.38;98.44;102062.47;4992933;28;20181;-46
2021/10/27 02:57:05;;;;;;;12.07;4.47;;;;;;;13.39;97.98;102064.13;5008364;28;20104;-49
2021/10/27 02:59:33;;;;;;;12.52;4.15;;;;;;;13.39;98.16;102069.59;4992578;28;20042;-47
2021/10/27 03:02:01;;;;;;;11.60;4.05;;;;;;;13.38;98.14;102067.97;4993334;28;20054;-48
2021/10/27 03:04:29;;;;;;;10.15;3.55;;;;;;;13.38;98.01;102073.44;4993222;28;20066;-46
2021/10/27 03:06:57;;;;;;;11.05;4.50;;;;;;;13.38;97.90;102067.97;4993200;28;20046;-48
2021/10/27 03:09:24;;;;;;;10.63;4.47;;;;;;;13.38;98.01;102068.78;4992668;28;20042;-47
2021/10/27 03:11:53;;;;;;;7.43;3.65;;;;;;;13.38;97.74;102070.69;4992588;28;20489;-47
2021/10/27 03:14:21;;;;;;;10.35;4.32;;;;;;;13.40;98.19;102066.63;4992911;28;20096;-48
2021/10/27 03:16:48;;;;;;;10.20;3.90;;;;;;;13.40;97.53;102072.09;4992982;28;20042;-48
2021/10/27 03:19:16;;;;;;;8.25;3.80;;;;;;;13.40;97.40;102079.47;4992630;28;20050;-46
2021/10/27 03:21:44;;;;;;;11.88;3.83;;;;;;;13.38;97.40;102073.44;4992960;28;20050;-47
2021/10/27 03:24:12;;;;;;;10.30;4.20;;;;;;;13.38;97.60;102084.38;4992962;28;20039;-47
2021/10/27 03:26:39;;;;;;;10.13;3.45;;;;;;;13.38;97.55;102079.72;4992347;28;20050;-46
2021/10/27 03:29:07;;;;;;;9.93;3.95;;;;;;;13.38;97.49;102078.91;4992375;28;20057;-48
2021/10/27 03:31:34;;;;;;;8.70;3.75;;;;;;;13.38;97.30;102074.25;4992585;28;20050;-45
2021/10/27 03:34:02;;;;;;;11.20;4.45;;;;;;;13.38;97.39;102077.00;4992833;28;20046;-47
2021/10/27 03:36:31;;;;;;;11.98;4.28;;;;;;;13.37;97.57;102077.22;4992889;28;20046;-47
2021/10/27 03:38:58;;;;;;;11.88;3.85;;;;;;;13.36;97.44;102076.41;4991992;28;20038;-49
2021/10/27 03:41:26;;;;;;;11.40;4.40;;;;;;;13.38;97.43;102070.69;4992211;28;20050;-46
2021/10/27 03:43:54;;;;;;;10.15;4.18;;;;;;;13.38;97.38;102084.38;4992395;28;20441;-48
2021/10/27 03:46:21;;;;;;;10.65;4.38;;;;;;;13.38;97.27;102089.84;4992409;28;20039;-46
2021/10/27 03:48:49;;;;;;;8.23;3.92;;;;;;;13.37;97.16;102089.03;4992084;28;20059;-43
2021/10/27 03:51:17;;;;;;;10.93;4.88;;;;;;;13.36;97.29;102092.03;4992615;28;20075;-46
2021/10/27 03:53:44;;;;;;;13.63;5.38;;;;;;;13.34;97.29;102091.44;4992140;28;20456;-44
2021/10/27 03:56:12;;;;;;;8.43;4.53;;;;;;;13.32;97.39;102091.69;4991905;28;20101;-47
2021/10/27 03:58:40;;;;;;;13.73;4.93;;;;;;;13.32;97.49;102093.59;4991116;28;20041;-46
2021/10/27 04:01:08;;;;;;;12.43;4.60;;;;;;;13.31;97.11;102090.03;4992285;28;20363;-44
2021/10/27 04:03:36;;;;;;;14.95;4.65;;;;;;;13.34;97.10;102099.66;4992448;28;20054;-46
2021/10/27 04:06:04;;;;;;;11.85;5.00;;;;;;;13.35;97.39;102091.19;4992439;28;20050;-46
2021/10/27 04:08:32;;;;;;;8.77;3.60;;;;;;;13.37;97.02;102093.66;4990238;28;20042;-47
2021/10/27 04:11:00;;;;;;;9.52;3.67;;;;;;;13.39;96.87;102091.50;4991798;28;20061;-46
2021/10/27 04:13:28;;;;;;;9.23;3.75;;;;;;;13.40;96.58;102082.22;4992213;28;20457;-45
2021/10/27 04:16:01;;;;;;;9.00;3.78;;;;;;;13.40;96.51;102080.31;4992447;28;20046;-47
2021/10/27 04:18:30;;;;;;;9.55;4.28;;;;;;;13.40;96.18;102077.56;4991607;28;20042;-48
2021/10/27 04:20:58;;;;;;;16.40;4.60;;;;;;;13.40;96.37;102083.03;4992391;28;20050;-49
2021/10/27 04:23:26;;;;;;;10.77;4.07;;;;;;;13.39;96.17;102086.03;4991667;28;20042;-47
2021/10/27 04:25:53;;;;;;;11.63;4.70;;;;;;;13.37;96.09;102082.72;4991884;28;20038;-47
2021/10/27 04:28:21;;;;;;;10.00;4.80;;;;;;;13.36;96.49;102084.63;4991813;28;20045;-45
2021/10/27 04:30:49;;;;;;;10.60;4.68;;;;;;;13.34;96.18;102085.97;4987124;28;20061;-48
2021/10/27 04:33:18;;;;;;;11.75;4.72;;;;;;;13.32;96.12;102094.41;4991666;28;20047;-46
2021/10/27 04:35:46;;;;;;;9.77;4.15;;;;;;;13.36;96.01;102081.06;4991819;28;20097;-47
2021/10/27 04:38:15;;;;;;;11.52;4.88;;;;;;;13.31;96.06;102081.84;4991358;28;21153;-44
2021/10/27 04:40:44;;;;;;;15.57;5.13;;;;;;;13.31;95.92;102081.00;4985991;28;20141;-45
2021/10/27 04:43:12;;;;;;;12.68;4.57;;;;;;;13.30;96.22;102093.03;4991522;28;20045;-47
2021/10/27 04:45:40;;;;;;;12.98;4.55;;;;;;;13.27;96.34;102088.88;4991442;28;20046;-46
2021/10/27 04:48:08;;;;;;;13.30;4.57;;;;;;;13.25;96.07;102096.50;4991814;28;20038;-46
2021/10/27 04:50:36;;;;;;;8.13;3.90;;;;;;;13.26;96.01;102097.34;4990806;28;20057;-47
2021/10/27 04:53:04;;;;;;;15.07;4.70;;;;;;;13.28;96.14;102095.22;4991646;28;20102;-49
2021/10/27 04:55:32;;;;;;;8.13;3.67;;;;;;;13.26;96.20;102092.69;4996643;28;20042;-50
2021/10/27 04:58:00;;;;;;;9.48;3.75;;;;;;;13.27;96.19;102098.97;4991554;28;20547;-51
2021/10/27 05:00:27;;;;;;;10.30;4.15;;;;;;;13.27;95.98;102098.97;4991223;28;20078;-47
2021/10/27 05:02:55;;;;;;;9.82;4.53;;;;;;;13.28;95.65;102097.94;4991478;28;20089;-47
2021/10/27 05:05:22;;;;;;;11.15;4.22;;;;;;;13.26;96.02;102100.09;4991827;28;20065;-46
2021/10/27 05:07:52;;;;;;;14.82;5.18;;;;;;;13.24;95.53;102102.25;4991792;28;20057;-46
2021/10/27 05:10:20;;;;;;;8.90;4.10;;;;;;;13.25;95.60;102106.63;4990722;28;20043;-46
2021/10/27 05:12:47;;;;;;;12.65;4.80;;;;;;;13.22;96.04;102108.78;4991453;28;20043;-46
2021/10/27 05:15:15;;;;;;;10.02;4.30;;;;;;;13.20;96.10;102107.38;4990830;28;20069;-47
2021/10/27 05:17:42;;;;;;;11.88;4.05;;;;;;;13.20;95.84;102100.03;4991796;28;20077;-47
2021/10/27 05:20:10;;;;;;;11.23;4.32;;;;;;;13.19;96.02;102106.56;4990929;28;20046;-47
2021/10/27 05:22:38;;;;;;;12.38;4.70;;;;;;;13.18;95.87;102107.66;4993779;28;20042;-47
2021/10/27 05:25:06;;;;;;;8.80;3.90;;;;;;;13.18;95.73;102110.38;4994985;28;20053;-48
2021/10/27 05:27:35;;;;;;;10.95;4.68;;;;;;;13.18;95.85;102106.81;4995185;28;20049;-48
2021/10/27 05:30:04;;;;;;;10.70;4.90;;;;;;;13.18;95.82;102106.81;5009437;28;20097;-45
2021/10/27 05:32:32;;;;;;;13.10;5.00;;;;;;;13.18;95.89;102104.91;4994317;28;20050;-43
2021/10/27 05:35:00;;;;;;;11.85;4.60;;;;;;;13.17;95.44;102103.25;4994575;28;20056;-48
2021/10/27 05:37:27;;;;;;;12.23;4.53;;;;;;;13.16;95.34;102115.28;4994536;28;20046;-50
2021/10/27 05:39:55;;;;;;;12.00;4.78;;;;;;;13.13;95.48;102115.81;4994313;28;20044;-47
2021/10/27 05:42:27;;;;;;;10.65;4.18;;;;;;;13.11;95.35;102109.75;4994031;28;20046;-48
2021/10/27 05:44:57;;;;;;;10.15;4.50;;;;;;;13.11;95.66;102103.47;4994662;28;20121;-46
2021/10/27 05:47:25;;;;;;;10.55;5.13;;;;;;;13.09;95.43;102102.88;4994857;28;20046;-49
2021/10/27 05:50:08;;;;;;;12.77;5.07;;;;;;;13.07;95.96;102114.06;4994804;28;20054;-47
2021/10/27 05:55:28;;;;;;;11.25;4.72;;;;;;;13.05;95.50;102108.00;4994677;28;20057;-47
2021/10/27 05:57:55;;;;;;;12.02;4.88;;;;;;;13.03;95.72;102104.69;4994673;28;20137;-44
2021/10/27 06:00:23;;;;;;;11.00;4.72;;;;;;;13.00;95.58;102105.22;4994414;28;20046;-46
2021/10/27 06:02:50;;;;;;;10.48;4.88;;;;;;;12.98;94.95;102108.19;4993283;28;20054;-47
2021/10/27 06:05:18;;;;;;;13.57;5.03;;;;;;;12.97;95.12;102106.53;4994299;28;20043;-47
2021/10/27 06:07:46;;;;;;;13.82;4.50;;;;;;;12.96;95.04;102098.56;4994223;28;20043;-47
2021/10/27 06:10:19;;;;;;;9.93;4.45;;;;;;;12.96;95.00;102109.53;4993972;28;20138;-46
2021/10/27 06:12:49;;;;;;;12.75;4.78;;;;;;;12.95;94.79;102108.69;4993626;28;20061;-49
2021/10/27 06:15:19;;;;;;;9.02;4.28;;;;;;;12.91;94.79;102113.00;4994298;28;20045;-48
2021/10/27 06:17:47;;;;;;;12.02;4.82;;;;;;;12.90;95.47;102122.31;4993955;28;20066;-48
2021/10/27 06:20:14;;;;;;;9.70;4.40;;;;;;;12.91;95.12;102123.94;4993687;28;20034;-48
2021/10/27 06:22:43;;;;;;;11.95;4.57;;;;;;;12.91;95.29;102134.06;4993973;28;20422;-48
2021/10/27 06:25:12;;;;;;;10.00;4.38;;;;;;;12.90;95.04;102126.97;4993366;28;20452;-46
2021/10/27 06:27:44;;;;;;;12.90;5.07;;;;;;;12.88;95.26;102135.41;4994194;28;20046;-47
2021/10/27 06:30:42;;;;;;;11.23;5.05;;;;;;;12.88;95.28;102134.59;4993924;28;20409;-46
2021/10/27 06:36:01;;;;;;;9.15;4.13;;;;;;;12.91;95.05;102134.06;4993196;28;20054;-46
2021/10/27 06:39:08;;;;;;;12.52;5.03;;;;;;;12.89;95.07;102136.22;4993964;28;20133;-48
2021/10/27 06:47:13;;;;;;;;;;;;;;;12.88;94.65;102151.00;4971757;28;20107;-47
2021/10/27 06:49:41;;;;;;;10.88;4.72;;;;;;;12.87;94.89;102149.31;4970349;28;20377;-48
2021/10/27 06:52:08;;;;;;;10.32;4.50;;;;;;;12.87;94.58;102152.06;4964307;28;20050;-47
2021/10/27 06:54:36;;;;;;;9.05;4.20;;;;;;;12.88;94.95;102156.47;4964107;28;20051;-47
2021/10/27 06:57:04;;;;;;;9.55;4.85;;;;;;;12.87;94.83;102150.19;4970761;28;20125;-47
2021/10/27 06:59:34;;;;;;;8.57;4.03;;;;;;;12.87;94.58;102149.31;4971354;28;20059;-46
2021/10/27 07:02:55;;;;;;;11.73;4.68;;;;;;;12.87;94.58;102149.31;4970879;28;20042;-46
2021/10/27 07:05:11;;;;;;;13.18;5.22;;;;;;;12.86;94.30;102143.03;4958342;28;20154;-47
2021/10/27 07:16:04;;;;;;;11.43;4.60;;;;;;;12.89;95.01;102163.59;4961961;28;20055;-46
2021/10/27 07:18:32;;;;;;;9.50;3.72;;;;;;;12.90;94.65;102163.34;4981198;28;20133;-46
2021/10/27 07:21:00;;;;;;;9.00;4.22;;;;;;;12.92;94.96;102158.47;4992403;28;20034;-48
2021/10/27 07:23:28;;;;;;;10.38;5.15;;;;;;;12.92;94.75;102165.84;4990137;28;20061;-47
2021/10/27 07:25:57;;;;;;;8.18;4.43;;;;;;;12.94;94.92;102171.88;4991060;28;20101;-48
2021/10/27 07:28:26;;;;;;;10.20;4.40;;;;;;;12.94;94.67;102166.38;4992109;28;20054;-47
2021/10/27 07:30:55;;;;;;;11.60;5.20;;;;;;;12.94;94.69;102160.91;4990226;28;20038;-48
2021/10/27 07:33:22;;;;;;;23.40;5.10;;;;;;;12.97;95.29;102171.38;4991479;28;20054;-47
2021/10/27 07:35:54;;;;;;;9.32;3.97;;;;;;;12.98;95.03;102173.03;4987804;28;20066;-47
2021/10/27 07:41:10;;;;;;;9.88;4.18;;;;;;;13.06;95.04;102186.31;4991251;28;20121;-46
2021/10/27 07:43:37;;;;;;;19.05;4.63;;;;;;;13.10;95.16;102186.59;4991914;28;20042;-46
2021/10/27 07:46:12;;;;;;;10.07;4.80;;;;;;;13.07;95.05;102192.59;4988400;28;20035;-48
2021/10/27 07:48:40;;;;;;;12.20;5.65;;;;;;;13.08;95.34;102192.31;4992026;28;20042;-47
2021/10/27 07:51:08;;;;;;;13.02;5.10;;;;;;;13.08;94.95;102186.03;4992190;28;20038;-48
2021/10/27 07:53:35;;;;;;;12.57;5.50;;;;;;;13.07;95.21;102189.84;4992246;28;20050;-48
2021/10/27 07:56:04;;;;;;;14.52;5.60;;;;;;;13.06;95.73;102202.72;4991677;28;20493;-47
2021/10/27 07:58:32;;;;;;;17.60;5.82;;;;;;;13.09;95.28;102199.47;4992330;28;20054;-46
2021/10/27 08:01:00;;;;;;;13.45;6.03;;;;;;;13.10;95.47;102211.25;4992306;28;20049;-47
2021/10/27 08:03:30;;;;;;;12.73;6.22;;;;;;;13.09;95.74;102204.13;4991918;28;20413;-47
2021/10/27 08:06:04;;;;;;;24.55;8.90;;;;;;;13.13;95.27;102206.09;4992388;28;20486;-47
2021/10/27 08:08:32;;;;;;;22.65;7.35;;;;;;;13.11;95.67;102211.00;4991971;28;20050;-48
2021/10/27 08:11:00;;;;;;;17.30;6.22;;;;;;;13.12;95.54;102209.91;4993094;28;20046;-46
2021/10/27 08:13:28;;;;;;;12.48;6.13;;;;;;;13.13;96.00;102208.84;4991801;28;20049;-48
2021/10/27 08:15:56;;;;;;;15.05;5.97;;;;;;;13.15;95.50;102212.13;4989451;28;20038;-47
2021/10/27 08:18:24;;;;;;;16.83;6.80;;;;;;;13.15;95.40;102225.00;4990678;28;20046;-48
2021/10/27 08:20:52;;;;;;;20.60;7.53;;;;;;;13.22;95.37;102217.44;4991641;28;20121;-47
2021/10/27 08:23:21;;;;;;;23.48;8.77;;;;;;;13.27;95.84;102211.22;4991498;28;20543;-45
2021/10/27 08:25:55;;;;;;;20.17;7.47;;;;;;;13.32;95.65;102203.91;4991235;28;20421;-47
2021/10/27 08:28:35;;;;;;;18.30;7.00;;;;;;;13.37;95.84;102205.91;4990982;28;20046;-44
2021/10/27 08:31:15;;;;;;;28.90;9.15;;;;;;;13.51;96.04;102201.72;4991351;28;20156;-45
2021/10/27 08:36:23;;;;;;;17.88;7.15;;;;;;;13.51;95.17;102198.97;4991275;28;20069;-47
2021/10/27 08:38:52;;;;;;;15.20;5.90;;;;;;;13.45;95.47;102202.75;4991324;28;20047;-47
2021/10/27 08:41:40;;;;;;;16.52;6.68;;;;;;;13.45;95.50;102197.28;4990254;28;20086;-51
2021/10/27 08:44:09;;;;;;;17.98;6.97;;;;;;;13.57;96.14;102205.38;4990747;28;20038;-48
2021/10/27 08:46:37;;;;;;;22.27;6.63;;;;;;;13.53;95.80;102206.94;4990895;28;20046;-48
2021/10/27 08:49:06;;;;;;;16.02;6.25;;;;;;;13.51;95.72;102203.63;4991521;28;20038;-46
2021/10/27 08:51:35;;;;;;;20.92;6.30;;;;;;;13.50;95.72;102202.81;4991284;28;20485;-47
2021/10/27 08:54:05;;;;;;;15.88;5.93;;;;;;;13.52;95.56;102210.78;4991100;28;20569;-48
2021/10/27 08:56:35;;;;;;;17.05;5.35;;;;;;;13.56;95.80;102207.25;4994126;28;20547;-49
2021/10/27 09:04:39;;;;;;;17.17;7.32;;;;;;;13.38;95.62;102229.47;4995314;28;20050;-46
2021/10/27 09:07:15;;;;;;;16.45;6.43;;;;;;;13.35;95.79;102228.06;5007517;28;20046;-47
2021/10/27 09:09:57;;;;;;;11.65;4.90;;;;;;;13.38;95.78;102226.75;4989539;28;20050;-47
2021/10/27 09:37:08;;;;;;;17.38;6.03;;;;;;;13.77;95.68;102218.47;4994798;28;20557;-48
2021/10/27 10:06:52;;;;;;;20.55;6.70;;;;;;;13.73;93.71;102217.31;4979535;28;20042;-46
2021/10/27 10:09:20;;;;;;;16.48;7.05;;;;;;;13.77;93.61;102210.25;4993494;28;20043;-47
2021/10/27 10:11:50;;;;;;;12.23;5.88;;;;;;;13.82;93.59;102219.38;4993016;28;20448;-47
2021/10/27 10:14:19;;;;;;;15.38;6.55;;;;;;;13.88;93.15;102214.78;4993212;28;20042;-47
2021/10/27 10:16:50;;;;;;;14.82;6.63;;;;;;;13.93;92.79;102223.06;4993523;28;20097;-47
2021/10/27 10:19:30;;;;;;;17.33;7.60;;;;;;;13.99;92.61;102219.28;4993564;28;20043;-49
2021/10/27 10:21:58;;;;;;;20.13;8.20;;;;;;;14.14;93.51;102224.13;4992340;28;20054;-48
2021/10/27 10:24:37;;;;;;;26.88;11.23;;;;;;;14.23;93.84;102219.00;4993122;28;20058;-48
2021/10/27 10:27:13;;;;;;;28.27;10.35;;;;;;;14.26;93.75;102215.72;4993458;28;20030;-45
2021/10/27 10:30:00;;;;;;;17.08;7.28;;;;;;;14.24;91.73;102212.44;4993731;28;20035;-47
2021/10/27 10:32:33;;;;;;;14.25;6.70;;;;;;;14.19;91.67;102215.97;4993646;28;20039;-47
2021/10/27 10:35:29;;;;;;;18.25;8.10;;;;;;;14.21;92.14;102210.19;4993314;28;20042;-47
2021/10/27 10:44:34;;;;;;;19.65;8.60;;;;;;;14.35;93.36;102207.88;4980224;28;20383;-48
2021/10/27 11:22:37;;;;;;;12.63;5.90;;;;;;;14.41;89.93;102213.16;4906569;29;20070;-50
2021/10/27 11:25:14;;;;;;;15.45;5.75;;;;;;;14.42;89.81;102211.25;4945957;29;20519;-47
2021/10/27 11:39:34;;;;;;;11.75;5.05;;;;;;;14.45;88.50;102203.31;4950556;29;20058;-49
2021/10/27 11:42:25;;;;;;;9.77;5.32;;;;;;;14.49;88.24;102203.63;4950797;29;20051;-50
2021/10/27 11:47:36;;;;;;;13.65;5.00;;;;;;;14.55;87.30;102202.63;4950343;29;20055;-47
2021/10/27 11:50:06;;;;;;;15.95;5.43;;;;;;;14.61;86.91;102206.22;4951259;29;20051;-47
2021/10/27 11:52:42;;;;;;;16.40;5.13;;;;;;;14.56;86.41;102204.28;4969619;28;20370;-46
2021/10/27 11:55:11;;;;;;;12.57;5.50;;;;;;;14.59;86.40;102202.91;4991229;28;20449;-45
2021/10/27 11:57:40;;;;;;;12.50;5.93;;;;;;;14.62;87.28;102200.50;4991710;28;20497;-46
2021/10/27 12:00:36;;;;;;;15.77;6.07;;;;;;;14.64;88.36;102197.47;4992117;28;20038;-46
2021/10/27 12:05:52;;;;;;;12.70;5.65;;;;;;;14.69;87.13;102190.09;4991287;28;20042;-47
2021/10/27 12:19:22;;;;;;;9.63;4.30;;;;;;;14.70;85.79;102171.75;4912929;29;20144;-46
2021/10/27 12:22:01;;;;;;;15.57;5.60;;;;;;;14.75;87.52;102182.75;4912506;29;20052;-48
2021/10/27 12:24:33;;;;;;;13.88;5.25;;;;;;;14.75;87.43;102174.53;4912160;29;20392;-45
2021/10/27 12:27:07;;;;;;;20.88;7.22;;;;;;;14.88;89.65;102170.50;4912230;29;20040;-42
2021/10/27 12:29:38;;;;;;;15.35;6.00;;;;;;;14.90;89.27;102177.38;4912626;29;20040;-47
2021/10/27 12:32:13;;;;;;;17.10;6.68;;;;;;;14.95;90.10;102167.53;4916079;29;20107;-47
2021/10/27 12:34:52;;;;;;;16.23;5.97;;;;;;;15.00;89.25;102156.56;4916066;29;20507;-48
2021/10/27 12:37:24;;;;;;;14.65;6.38;;;;;;;15.15;89.20;102153.91;4915644;29;20048;-46
2021/10/27 12:39:51;;;;;;;15.27;5.95;;;;;;;15.11;88.57;102156.38;4915940;29;20043;-47
2021/10/27 12:42:19;;;;;;;13.93;5.53;;;;;;;15.07;87.91;102154.41;4916049;29;20052;-47
2021/10/27 12:44:53;;;;;;;16.73;5.07;;;;;;;15.02;86.42;102146.16;4916215;29;20056;-47
2021/10/27 12:47:25;;;;;;;11.50;5.25;;;;;;;15.10;87.00;102142.91;4952146;28;20046;-48
2021/10/27 12:50:06;;;;;;;10.30;4.47;;;;;;;15.01;83.77;102139.84;4995285;28;20054;-47
2021/10/27 12:52:41;;;;;;;9.15;3.78;;;;;;;14.95;83.67;102134.59;4995631;28;20327;-47
2021/10/27 12:55:12;;;;;;;10.18;4.35;;;;;;;14.91;83.28;102129.63;4995254;28;20370;-45
2021/10/27 12:58:13;;;;;;;12.48;4.72;;;;;;;14.91;83.49;102129.63;4995690;28;20049;-46
2021/10/27 13:05:50;;;;;;;9.73;4.28;;;;;;;14.88;83.30;102124.66;4995234;28;20053;-47
2021/10/27 13:22:05;;;;;;;11.23;4.28;;;;;;;14.94;82.42;102117.31;4934500;29;20052;-47
2021/10/27 13:30:11;;;;;;;13.73;5.22;;;;;;;15.13;85.12;102104.78;4934666;29;20051;-48
2021/10/27 13:32:44;;;;;;;13.75;4.80;;;;;;;15.19;84.73;102104.78;4934427;29;20044;-48
2021/10/27 13:35:12;;;;;;;11.65;5.15;;;;;;;15.27;85.63;102101.53;4918270;29;20431;-48
2021/10/27 13:37:39;;;;;;;11.13;4.50;;;;;;;15.25;82.81;102106.44;4934338;29;20136;-47
2021/10/27 13:40:08;;;;;;;10.90;4.93;;;;;;;15.28;85.35;102097.69;4934486;29;20052;-46
2021/10/27 13:48:40;;;;;;;10.07;4.85;;;;;;;15.26;82.10;102097.97;4917147;29;20107;-45
2021/10/27 14:08:04;;;;;;;12.95;4.60;;;;;;;15.20;82.25;102082.56;4918150;29;20178;-49
2021/10/27 14:10:54;;;;;;;12.57;4.40;;;;;;;15.32;86.46;102079.56;4933852;29;20051;-47
2021/10/27 14:18:57;;;;;;;9.07;4.00;;;;;;;15.34;84.96;102070.00;4933176;29;20047;-46
2021/10/27 14:41:22;;;;;;;10.13;3.85;;;;;;;15.47;84.22;102048.59;4992418;28;20469;-46
2021/10/27 15:20:03;;;;;;;9.30;3.60;;;;;;;15.27;86.70;102030.13;4929821;29;19946;-47
2021/10/27 15:31:00;;;;;;;10.15;4.03;;;;;;;15.13;85.22;102027.09;4947707;29;20043;-46
2021/10/27 15:33:39;;;;;;;10.15;3.95;;;;;;;15.14;86.60;102028.72;4948878;29;20079;-46
2021/10/27 15:52:10;;;;;;;;;;;;;;;15.02;87.09;102028.13;4946962;29;20106;-46
2021/10/27 15:54:37;;;;;;;13.38;4.50;;;;;;;15.01;86.83;102029.22;4945722;29;20508;-47
2021/10/27 15:57:05;;;;;;;8.38;3.60;;;;;;;15.00;87.09;102030.31;4947410;29;20043;-46
2021/10/27 15:59:33;;;;;;;11.43;4.10;;;;;;;14.95;86.56;102036.59;4945626;29;20053;-49
2021/10/27 16:02:00;;;;;;;7.57;3.63;;;;;;;15.01;87.18;102031.94;4948510;29;20047;-47
2021/10/27 16:04:28;;;;;;;11.30;3.80;;;;;;;14.94;86.05;102034.16;4945935;28;20403;-44
2021/10/27 16:06:56;;;;;;;7.47;3.90;;;;;;;14.90;86.74;102033.84;4954534;28;20101;-47
2021/10/27 16:09:29;;;;;;;9.38;3.55;;;;;;;14.90;87.36;102037.41;4988077;28;20054;-46
2021/10/27 16:12:08;;;;;;;9.88;4.13;;;;;;;14.89;87.83;102035.78;4989674;28;20049;-45
2021/10/27 16:14:36;;;;;;;17.38;4.35;;;;;;;14.87;87.08;102029.72;4987514;28;20477;-46
2021/10/27 16:17:04;;;;;;;9.65;3.90;;;;;;;14.81;85.89;102030.78;4987508;28;20046;-44
2021/10/27 16:19:32;;;;;;;9.00;3.53;;;;;;;14.80;86.13;102031.06;4988401;28;20070;-47